sensor_id;sensor_type;location;lat;lon;timestamp;temperature;humidity
10249;DHT22;5169;50.560;9.714;2022-12-29T00:00:05;7.60;99.90
10249;DHT22;5169;50.560;9.714;2022-12-29T00:02:31;7.60;99.90
10249;DHT22;5169;50.560;9.714;2022-12-29T00:04:56;7.60;99.90
10249;DHT22;5169;50.560;9.714;2022-12-29T00:07:22;7.60;99.90
10249;DHT22;5169;50.560;9.714;2022-12-29T00:09:50;7.70;99.90
10249;DHT22;5169;50.560;9.714;2022-12-29T00:12:15;7.70;99.90
10249;DHT22;5169;50.560;9.714;2022-12-29T00:14:41;7.80;99.90
10249;DHT22;5169;50.560;9.714;2022-12-29T00:17:25;7.80;99.90
10249;DHT22;5169;50.560;9.714;2022-12-29T00:19:51;7.90;99.90
10249;DHT22;5169;50.560;9.714;2022-12-29T00:22:35;7.90;99.90
10249;DHT22;5169;50.560;9.714;2022-12-29T00:25:39;8.00;99.90
10249;DHT22;5169;50.560;9.714;2022-12-29T00:28:25;8.00;99.90
10249;DHT22;5169;50.560;9.714;2022-12-29T00:31:12;8.00;99.90
10249;DHT22;5169;50.560;9.714;2022-12-29T00:33:58;8.00;99.90
10249;DHT22;5169;50.560;9.714;2022-12-29T00:36:43;8.00;99.90
10249;DHT22;5169;50.560;9.714;2022-12-29T00:39:14;8.00;99.90
10249;DHT22;5169;50.560;9.714;2022-12-29T00:42:07;8.00;99.90
10249;DHT22;5169;50.560;9.714;2022-12-29T00:44:51;8.10;99.90
10249;DHT22;5169;50.560;9.714;2022-12-29T00:47:17;8.30;99.90
10249;DHT22;5169;50.560;9.714;2022-12-29T00:49:45;8.30;99.90
10249;DHT22;5169;50.560;9.714;2022-12-29T00:52:12;8.40;99.90
10249;DHT22;5169;50.560;9.714;2022-12-29T00:54:39;8.60;99.90
10249;DHT22;5169;50.560;9.714;2022-12-29T00:57:09;8.60;99.90
10249;DHT22;5169;50.560;9.714;2022-12-29T00:59:39;8.80;99.90
10249;DHT22;5169;50.560;9.714;2022-12-29T01:02:08;8.90;99.90
10249;DHT22;5169;50.560;9.714;2022-12-29T01:04:33;8.90;99.90
10249;DHT22;5169;50.560;9.714;2022-12-29T01:06:59;9.00;99.90
10249;DHT22;5169;50.560;9.714;2022-12-29T01:09:25;9.10;99.90
10249;DHT22;5169;50.560;9.714;2022-12-29T01:12:10;9.10;99.90
10249;DHT22;5169;50.560;9.714;2022-12-29T01:14:38;9.20;99.90
10249;DHT22;5169;50.560;9.714;2022-12-29T01:17:04;9.30;99.90
10249;DHT22;5169;50.560;9.714;2022-12-29T01:19:30;9.30;99.90
10249;DHT22;5169;50.560;9.714;2022-12-29T01:21:58;9.40;99.90
10249;DHT22;5169;50.560;9.714;2022-12-29T01:24:26;9.40;99.90
10249;DHT22;5169;50.560;9.714;2022-12-29T01:26:52;9.40;99.90
10249;DHT22;5169;50.560;9.714;2022-12-29T01:29:19;9.50;99.90
10249;DHT22;5169;50.560;9.714;2022-12-29T01:31:45;9.50;99.90
10249;DHT22;5169;50.560;9.714;2022-12-29T01:34:11;9.50;99.90
10249;DHT22;5169;50.560;9.714;2022-12-29T01:36:42;9.50;99.90
10249;DHT22;5169;50.560;9.714;2022-12-29T01:39:10;9.60;99.90
10249;DHT22;5169;50.560;9.714;2022-12-29T01:41:35;9.60;99.90
10249;DHT22;5169;50.560;9.714;2022-12-29T01:44:01;9.50;99.90
10249;DHT22;5169;50.560;9.714;2022-12-29T01:51:54;9.40;99.90
10249;DHT22;5169;50.560;9.714;2022-12-29T01:54:26;9.40;99.90
10249;DHT22;5169;50.560;9.714;2022-12-29T01:56:56;9.30;99.90
10249;DHT22;5169;50.560;9.714;2022-12-29T01:59:26;9.30;99.90
10249;DHT22;5169;50.560;9.714;2022-12-29T02:01:56;9.30;99.90
10249;DHT22;5169;50.560;9.714;2022-12-29T02:04:26;9.20;99.90
10249;DHT22;5169;50.560;9.714;2022-12-29T02:07:03;9.20;99.90
10249;DHT22;5169;50.560;9.714;2022-12-29T02:09:30;9.10;99.90
10249;DHT22;5169;50.560;9.714;2022-12-29T02:11:59;9.10;99.90
10249;DHT22;5169;50.560;9.714;2022-12-29T02:14:28;9.00;99.90
10249;DHT22;5169;50.560;9.714;2022-12-29T02:20:04;9.00;99.90
10249;DHT22;5169;50.560;9.714;2022-12-29T02:26:09;9.00;99.90
10249;DHT22;5169;50.560;9.714;2022-12-29T02:42:42;9.00;99.90
10249;DHT22;5169;50.560;9.714;2022-12-29T02:50:25;9.00;99.90
10249;DHT22;5169;50.560;9.714;2022-12-29T02:53:04;9.00;99.90
10249;DHT22;5169;50.560;9.714;2022-12-29T02:55:35;9.00;99.90
10249;DHT22;5169;50.560;9.714;2022-12-29T03:01:07;9.10;99.90
10249;DHT22;5169;50.560;9.714;2022-12-29T03:09:22;9.20;99.90
10249;DHT22;5169;50.560;9.714;2022-12-29T03:17:57;9.20;99.90
10249;DHT22;5169;50.560;9.714;2022-12-29T03:20:36;9.30;99.90
10249;DHT22;5169;50.560;9.714;2022-12-29T03:23:05;9.30;99.90
10249;DHT22;5169;50.560;9.714;2022-12-29T03:25:42;9.30;99.90
10249;DHT22;5169;50.560;9.714;2022-12-29T03:28:30;9.30;99.90
10249;DHT22;5169;50.560;9.714;2022-12-29T03:31:00;9.30;99.90
10249;DHT22;5169;50.560;9.714;2022-12-29T03:33:28;9.30;99.90
10249;DHT22;5169;50.560;9.714;2022-12-29T03:36:00;9.30;99.90
10249;DHT22;5169;50.560;9.714;2022-12-29T03:38:30;9.40;99.90
10249;DHT22;5169;50.560;9.714;2022-12-29T03:40:58;9.40;99.90
10249;DHT22;5169;50.560;9.714;2022-12-29T03:43:28;9.50;99.90
10249;DHT22;5169;50.560;9.714;2022-12-29T03:45:57;9.50;99.90
10249;DHT22;5169;50.560;9.714;2022-12-29T03:48:22;9.50;99.90
10249;DHT22;5169;50.560;9.714;2022-12-29T03:50:50;9.50;99.90
10249;DHT22;5169;50.560;9.714;2022-12-29T03:53:16;9.60;99.90
10249;DHT22;5169;50.560;9.714;2022-12-29T03:55:42;9.60;99.90
10249;DHT22;5169;50.560;9.714;2022-12-29T03:58:07;9.60;99.90
10249;DHT22;5169;50.560;9.714;2022-12-29T04:00:35;9.60;99.90
10249;DHT22;5169;50.560;9.714;2022-12-29T04:03:03;9.60;99.90
10249;DHT22;5169;50.560;9.714;2022-12-29T04:05:31;9.60;99.90
10249;DHT22;5169;50.560;9.714;2022-12-29T04:07:56;9.70;99.90
10249;DHT22;5169;50.560;9.714;2022-12-29T04:10:22;9.70;99.90
10249;DHT22;5169;50.560;9.714;2022-12-29T04:12:50;9.70;99.90
10249;DHT22;5169;50.560;9.714;2022-12-29T04:15:16;9.70;99.90
10249;DHT22;5169;50.560;9.714;2022-12-29T04:17:41;9.60;99.90
10249;DHT22;5169;50.560;9.714;2022-12-29T04:20:07;9.60;99.90
10249;DHT22;5169;50.560;9.714;2022-12-29T04:23:06;9.60;99.90
10249;DHT22;5169;50.560;9.714;2022-12-29T04:25:36;9.60;99.90
10249;DHT22;5169;50.560;9.714;2022-12-29T04:28:02;9.70;99.90
10249;DHT22;5169;50.560;9.714;2022-12-29T04:30:27;9.70;99.90
10249;DHT22;5169;50.560;9.714;2022-12-29T04:32:53;9.70;99.90
10249;DHT22;5169;50.560;9.714;2022-12-29T04:35:19;9.80;99.90
10249;DHT22;5169;50.560;9.714;2022-12-29T04:37:44;9.80;99.90
10249;DHT22;5169;50.560;9.714;2022-12-29T04:40:10;9.80;99.90
10249;DHT22;5169;50.560;9.714;2022-12-29T04:42:36;9.80;99.90
10249;DHT22;5169;50.560;9.714;2022-12-29T04:45:02;9.80;99.90
10249;DHT22;5169;50.560;9.714;2022-12-29T04:47:30;9.80;99.90
10249;DHT22;5169;50.560;9.714;2022-12-29T04:49:58;9.80;99.90
10249;DHT22;5169;50.560;9.714;2022-12-29T04:52:23;9.80;99.90
10249;DHT22;5169;50.560;9.714;2022-12-29T04:54:49;9.80;99.90
10249;DHT22;5169;50.560;9.714;2022-12-29T04:57:15;9.90;99.90
10249;DHT22;5169;50.560;9.714;2022-12-29T04:59:40;9.80;99.90
10249;DHT22;5169;50.560;9.714;2022-12-29T05:02:06;9.80;99.90
10249;DHT22;5169;50.560;9.714;2022-12-29T05:04:32;9.90;99.90
10249;DHT22;5169;50.560;9.714;2022-12-29T05:06:57;9.90;99.90
10249;DHT22;5169;50.560;9.714;2022-12-29T05:09:23;9.90;99.90
10249;DHT22;5169;50.560;9.714;2022-12-29T05:11:49;9.90;99.90
10249;DHT22;5169;50.560;9.714;2022-12-29T05:14:15;9.90;99.90
10249;DHT22;5169;50.560;9.714;2022-12-29T05:16:40;10.00;99.90
10249;DHT22;5169;50.560;9.714;2022-12-29T05:19:06;10.00;99.90
10249;DHT22;5169;50.560;9.714;2022-12-29T05:21:32;10.00;99.90
10249;DHT22;5169;50.560;9.714;2022-12-29T05:23:57;10.00;99.90
10249;DHT22;5169;50.560;9.714;2022-12-29T05:26:27;9.90;99.90
10249;DHT22;5169;50.560;9.714;2022-12-29T05:28:53;9.90;99.90
10249;DHT22;5169;50.560;9.714;2022-12-29T05:31:19;10.00;99.90
10249;DHT22;5169;50.560;9.714;2022-12-29T05:33:44;10.00;99.90
10249;DHT22;5169;50.560;9.714;2022-12-29T05:36:10;10.00;99.90
10249;DHT22;5169;50.560;9.714;2022-12-29T05:38:36;10.00;99.90
10249;DHT22;5169;50.560;9.714;2022-12-29T05:41:02;10.00;99.90
10249;DHT22;5169;50.560;9.714;2022-12-29T05:43:27;10.00;99.90
10249;DHT22;5169;50.560;9.714;2022-12-29T05:45:54;10.00;99.90
10249;DHT22;5169;50.560;9.714;2022-12-29T05:48:20;10.00;99.90
10249;DHT22;5169;50.560;9.714;2022-12-29T05:50:51;10.00;99.90
10249;DHT22;5169;50.560;9.714;2022-12-29T05:53:19;10.00;99.90
10249;DHT22;5169;50.560;9.714;2022-12-29T05:55:46;9.90;99.90
10249;DHT22;5169;50.560;9.714;2022-12-29T05:58:16;10.00;99.90
10249;DHT22;5169;50.560;9.714;2022-12-29T06:00:42;9.90;99.90
10249;DHT22;5169;50.560;9.714;2022-12-29T06:03:07;9.90;99.90
10249;DHT22;5169;50.560;9.714;2022-12-29T06:05:35;10.00;99.90
10249;DHT22;5169;50.560;9.714;2022-12-29T06:08:01;9.90;99.90
10249;DHT22;5169;50.560;9.714;2022-12-29T06:10:26;10.00;99.90
10249;DHT22;5169;50.560;9.714;2022-12-29T06:12:52;10.00;99.90
10249;DHT22;5169;50.560;9.714;2022-12-29T06:15:18;10.00;99.90
10249;DHT22;5169;50.560;9.714;2022-12-29T06:17:46;10.00;99.90
10249;DHT22;5169;50.560;9.714;2022-12-29T06:20:16;10.10;99.90
10249;DHT22;5169;50.560;9.714;2022-12-29T06:22:42;10.20;99.90
10249;DHT22;5169;50.560;9.714;2022-12-29T06:25:08;10.10;99.90
10249;DHT22;5169;50.560;9.714;2022-12-29T06:27:36;10.10;99.90
10249;DHT22;5169;50.560;9.714;2022-12-29T06:30:02;10.20;99.90
10249;DHT22;5169;50.560;9.714;2022-12-29T06:32:30;10.20;99.90
10249;DHT22;5169;50.560;9.714;2022-12-29T06:34:56;10.20;99.90
10249;DHT22;5169;50.560;9.714;2022-12-29T06:37:22;10.20;99.90
10249;DHT22;5169;50.560;9.714;2022-12-29T06:39:50;10.20;99.90
10249;DHT22;5169;50.560;9.714;2022-12-29T06:42:15;10.10;99.90
10249;DHT22;5169;50.560;9.714;2022-12-29T06:44:44;10.20;99.90
10249;DHT22;5169;50.560;9.714;2022-12-29T06:47:10;10.10;99.90
10249;DHT22;5169;50.560;9.714;2022-12-29T06:49:38;10.10;99.90
10249;DHT22;5169;50.560;9.714;2022-12-29T06:52:04;10.10;99.90
10249;DHT22;5169;50.560;9.714;2022-12-29T06:54:33;10.00;99.90
10249;DHT22;5169;50.560;9.714;2022-12-29T06:56:59;10.00;99.90
10249;DHT22;5169;50.560;9.714;2022-12-29T06:59:25;10.00;99.90
10249;DHT22;5169;50.560;9.714;2022-12-29T07:01:51;10.00;99.90
10249;DHT22;5169;50.560;9.714;2022-12-29T07:04:17;10.10;99.90
10249;DHT22;5169;50.560;9.714;2022-12-29T07:06:45;10.00;99.90
10249;DHT22;5169;50.560;9.714;2022-12-29T07:09:11;10.00;99.90
10249;DHT22;5169;50.560;9.714;2022-12-29T07:11:39;10.00;99.90
10249;DHT22;5169;50.560;9.714;2022-12-29T07:14:05;10.00;99.90
10249;DHT22;5169;50.560;9.714;2022-12-29T07:16:31;10.00;99.90
10249;DHT22;5169;50.560;9.714;2022-12-29T07:18:57;10.10;99.90
10249;DHT22;5169;50.560;9.714;2022-12-29T07:21:24;10.10;99.90
10249;DHT22;5169;50.560;9.714;2022-12-29T07:23:50;10.10;99.90
10249;DHT22;5169;50.560;9.714;2022-12-29T07:26:16;10.00;99.90
10249;DHT22;5169;50.560;9.714;2022-12-29T07:28:44;10.10;99.90
10249;DHT22;5169;50.560;9.714;2022-12-29T07:31:19;10.10;99.90
10249;DHT22;5169;50.560;9.714;2022-12-29T07:33:45;10.10;99.90
10249;DHT22;5169;50.560;9.714;2022-12-29T07:36:12;10.10;99.90
10249;DHT22;5169;50.560;9.714;2022-12-29T07:38:40;10.10;99.90
10249;DHT22;5169;50.560;9.714;2022-12-29T07:41:09;10.20;99.90
10249;DHT22;5169;50.560;9.714;2022-12-29T07:43:35;10.10;99.90
10249;DHT22;5169;50.560;9.714;2022-12-29T07:46:03;10.10;99.90
10249;DHT22;5169;50.560;9.714;2022-12-29T07:48:29;10.00;99.90
10249;DHT22;5169;50.560;9.714;2022-12-29T07:50:54;9.90;99.90
10249;DHT22;5169;50.560;9.714;2022-12-29T07:53:20;9.80;99.90
10249;DHT22;5169;50.560;9.714;2022-12-29T07:55:46;9.80;99.90
10249;DHT22;5169;50.560;9.714;2022-12-29T07:58:11;9.80;99.90
10249;DHT22;5169;50.560;9.714;2022-12-29T08:00:38;9.80;99.90
10249;DHT22;5169;50.560;9.714;2022-12-29T08:03:04;9.80;99.90
10249;DHT22;5169;50.560;9.714;2022-12-29T08:05:31;9.90;99.90
10249;DHT22;5169;50.560;9.714;2022-12-29T08:07:57;9.90;99.90
10249;DHT22;5169;50.560;9.714;2022-12-29T08:10:22;9.90;99.90
10249;DHT22;5169;50.560;9.714;2022-12-29T08:12:48;10.00;99.90
10249;DHT22;5169;50.560;9.714;2022-12-29T08:15:14;9.90;99.90
10249;DHT22;5169;50.560;9.714;2022-12-29T08:17:40;10.00;99.90
10249;DHT22;5169;50.560;9.714;2022-12-29T08:20:06;10.00;99.90
10249;DHT22;5169;50.560;9.714;2022-12-29T08:22:34;10.00;99.90
10249;DHT22;5169;50.560;9.714;2022-12-29T08:25:02;10.00;99.90
10249;DHT22;5169;50.560;9.714;2022-12-29T08:27:28;10.10;99.90
10249;DHT22;5169;50.560;9.714;2022-12-29T08:29:54;10.10;99.90
10249;DHT22;5169;50.560;9.714;2022-12-29T08:32:19;10.20;99.90
10249;DHT22;5169;50.560;9.714;2022-12-29T08:34:45;10.10;99.90
10249;DHT22;5169;50.560;9.714;2022-12-29T08:37:11;10.20;99.90
10249;DHT22;5169;50.560;9.714;2022-12-29T08:39:37;10.20;99.90
10249;DHT22;5169;50.560;9.714;2022-12-29T08:42:04;10.20;99.90
10249;DHT22;5169;50.560;9.714;2022-12-29T08:44:33;10.10;99.90
10249;DHT22;5169;50.560;9.714;2022-12-29T08:46:58;10.10;99.90
10249;DHT22;5169;50.560;9.714;2022-12-29T08:49:26;10.10;99.90
10249;DHT22;5169;50.560;9.714;2022-12-29T08:51:52;10.10;99.90
10249;DHT22;5169;50.560;9.714;2022-12-29T08:54:17;10.10;99.90
10249;DHT22;5169;50.560;9.714;2022-12-29T08:56:47;10.10;99.90
10249;DHT22;5169;50.560;9.714;2022-12-29T08:59:13;10.20;99.90
10249;DHT22;5169;50.560;9.714;2022-12-29T09:01:39;10.20;99.90
10249;DHT22;5169;50.560;9.714;2022-12-29T09:04:06;10.20;99.90
10249;DHT22;5169;50.560;9.714;2022-12-29T09:06:32;10.30;99.90
10249;DHT22;5169;50.560;9.714;2022-12-29T09:08:58;10.20;99.90
10249;DHT22;5169;50.560;9.714;2022-12-29T09:11:25;10.20;99.90
10249;DHT22;5169;50.560;9.714;2022-12-29T09:13:53;10.30;99.90
10249;DHT22;5169;50.560;9.714;2022-12-29T09:16:23;10.20;99.90
10249;DHT22;5169;50.560;9.714;2022-12-29T09:18:49;10.20;99.90
10249;DHT22;5169;50.560;9.714;2022-12-29T09:21:15;10.20;99.90
10249;DHT22;5169;50.560;9.714;2022-12-29T09:23:40;10.20;99.90
10249;DHT22;5169;50.560;9.714;2022-12-29T09:26:06;10.20;99.90
10249;DHT22;5169;50.560;9.714;2022-12-29T09:28:33;10.20;99.90
10249;DHT22;5169;50.560;9.714;2022-12-29T09:30:58;10.30;99.90
10249;DHT22;5169;50.560;9.714;2022-12-29T09:33:24;10.40;99.90
10249;DHT22;5169;50.560;9.714;2022-12-29T09:35:55;10.40;99.90
10249;DHT22;5169;50.560;9.714;2022-12-29T09:38:25;10.40;99.90
10249;DHT22;5169;50.560;9.714;2022-12-29T09:40:53;10.50;99.90
10249;DHT22;5169;50.560;9.714;2022-12-29T09:46:35;10.50;99.90
10249;DHT22;5169;50.560;9.714;2022-12-29T09:51:52;10.50;99.90
10249;DHT22;5169;50.560;9.714;2022-12-29T09:57:18;10.60;99.90
10249;DHT22;5169;50.560;9.714;2022-12-29T09:59:46;10.60;99.90
10249;DHT22;5169;50.560;9.714;2022-12-29T10:02:38;10.60;99.90
10249;DHT22;5169;50.560;9.714;2022-12-29T10:16:44;10.60;99.90
10249;DHT22;5169;50.560;9.714;2022-12-29T10:21:58;10.60;99.90
10249;DHT22;5169;50.560;9.714;2022-12-29T10:24:28;10.60;99.90
10249;DHT22;5169;50.560;9.714;2022-12-29T10:26:57;10.50;99.90
10249;DHT22;5169;50.560;9.714;2022-12-29T10:29:32;10.40;99.90
10249;DHT22;5169;50.560;9.714;2022-12-29T10:32:33;10.40;99.90
10249;DHT22;5169;50.560;9.714;2022-12-29T10:42:55;10.70;99.90
10249;DHT22;5169;50.560;9.714;2022-12-29T10:45:26;10.70;99.90
10249;DHT22;5169;50.560;9.714;2022-12-29T10:48:02;10.70;99.90
10249;DHT22;5169;50.560;9.714;2022-12-29T10:50:29;10.80;99.90
10249;DHT22;5169;50.560;9.714;2022-12-29T10:52:59;10.80;99.90
10249;DHT22;5169;50.560;9.714;2022-12-29T10:55:32;10.70;99.90
10249;DHT22;5169;50.560;9.714;2022-12-29T10:58:02;10.70;99.90
10249;DHT22;5169;50.560;9.714;2022-12-29T11:00:33;10.70;99.90
10249;DHT22;5169;50.560;9.714;2022-12-29T11:08:11;10.60;99.90
10249;DHT22;5169;50.560;9.714;2022-12-29T11:10:40;10.60;99.90
10249;DHT22;5169;50.560;9.714;2022-12-29T11:13:16;10.50;99.90
10249;DHT22;5169;50.560;9.714;2022-12-29T11:15:47;10.50;99.90
10249;DHT22;5169;50.560;9.714;2022-12-29T11:20:59;10.40;99.90
10249;DHT22;5169;50.560;9.714;2022-12-29T11:23:38;10.40;99.90
10249;DHT22;5169;50.560;9.714;2022-12-29T11:28:32;10.30;99.90
10249;DHT22;5169;50.560;9.714;2022-12-29T11:31:05;10.30;99.90
10249;DHT22;5169;50.560;9.714;2022-12-29T11:33:35;10.30;99.90
10249;DHT22;5169;50.560;9.714;2022-12-29T11:36:18;10.30;99.90
10249;DHT22;5169;50.560;9.714;2022-12-29T11:38:52;10.20;99.90
10249;DHT22;5169;50.560;9.714;2022-12-29T11:41:26;10.20;99.90
10249;DHT22;5169;50.560;9.714;2022-12-29T11:43:56;10.30;99.90
10249;DHT22;5169;50.560;9.714;2022-12-29T11:46:27;10.50;99.90
10249;DHT22;5169;50.560;9.714;2022-12-29T11:48:53;10.60;99.90
10249;DHT22;5169;50.560;9.714;2022-12-29T11:51:43;10.60;99.90
10249;DHT22;5169;50.560;9.714;2022-12-29T11:54:29;11.00;99.90
10249;DHT22;5169;50.560;9.714;2022-12-29T11:56:55;11.20;99.90
10249;DHT22;5169;50.560;9.714;2022-12-29T11:59:37;11.70;99.90
10249;DHT22;5169;50.560;9.714;2022-12-29T12:02:16;12.00;99.90
10249;DHT22;5169;50.560;9.714;2022-12-29T12:04:44;12.50;99.90
10249;DHT22;5169;50.560;9.714;2022-12-29T12:07:18;14.00;99.90
10249;DHT22;5169;50.560;9.714;2022-12-29T12:09:50;15.50;99.90
10249;DHT22;5169;50.560;9.714;2022-12-29T12:12:39;16.10;99.90
10249;DHT22;5169;50.560;9.714;2022-12-29T12:15:15;16.70;99.90
10249;DHT22;5169;50.560;9.714;2022-12-29T12:18:01;16.10;99.90
10249;DHT22;5169;50.560;9.714;2022-12-29T12:26:52;13.90;99.90
10249;DHT22;5169;50.560;9.714;2022-12-29T12:29:46;13.10;99.90
10249;DHT22;5169;50.560;9.714;2022-12-29T12:35:15;11.90;99.90
10249;DHT22;5169;50.560;9.714;2022-12-29T12:38:04;11.60;99.90
10249;DHT22;5169;50.560;9.714;2022-12-29T12:40:51;11.40;99.90
10249;DHT22;5169;50.560;9.714;2022-12-29T12:51:46;11.30;99.90
10249;DHT22;5169;50.560;9.714;2022-12-29T13:19:43;11.20;99.90
10249;DHT22;5169;50.560;9.714;2022-12-29T13:22:34;11.30;99.90
10249;DHT22;5169;50.560;9.714;2022-12-29T13:25:27;11.30;99.90
10249;DHT22;5169;50.560;9.714;2022-12-29T13:28:25;11.20;99.90
10249;DHT22;5169;50.560;9.714;2022-12-29T13:38:48;10.80;99.90
10249;DHT22;5169;50.560;9.714;2022-12-29T13:41:33;10.70;99.90
10249;DHT22;5169;50.560;9.714;2022-12-29T13:44:05;10.70;99.90
10249;DHT22;5169;50.560;9.714;2022-12-29T13:46:41;10.70;99.90
10249;DHT22;5169;50.560;9.714;2022-12-29T13:49:21;10.80;99.90
10249;DHT22;5169;50.560;9.714;2022-12-29T13:54:43;10.90;99.90
10249;DHT22;5169;50.560;9.714;2022-12-29T13:59:53;10.80;99.90
10249;DHT22;5169;50.560;9.714;2022-12-29T14:08:01;10.60;99.90
10249;DHT22;5169;50.560;9.714;2022-12-29T14:13:14;10.60;99.90
10249;DHT22;5169;50.560;9.714;2022-12-29T14:15:46;10.60;99.90
10249;DHT22;5169;50.560;9.714;2022-12-29T14:18:19;10.50;99.90
10249;DHT22;5169;50.560;9.714;2022-12-29T14:23:34;10.50;99.90
10249;DHT22;5169;50.560;9.714;2022-12-29T14:31:27;10.50;99.90
10249;DHT22;5169;50.560;9.714;2022-12-29T14:36:42;10.50;99.90
10249;DHT22;5169;50.560;9.714;2022-12-29T14:47:20;10.40;99.90
10249;DHT22;5169;50.560;9.714;2022-12-29T14:49:47;10.30;99.90
10249;DHT22;5169;50.560;9.714;2022-12-29T14:52:24;10.30;99.90
10249;DHT22;5169;50.560;9.714;2022-12-29T14:54:52;10.30;99.90
10249;DHT22;5169;50.560;9.714;2022-12-29T14:57:57;10.30;99.90
10249;DHT22;5169;50.560;9.714;2022-12-29T15:00:33;10.40;99.90
10249;DHT22;5169;50.560;9.714;2022-12-29T15:03:12;10.30;99.90
10249;DHT22;5169;50.560;9.714;2022-12-29T15:08:18;10.20;99.90
10249;DHT22;5169;50.560;9.714;2022-12-29T15:10:57;10.20;99.90
10249;DHT22;5169;50.560;9.714;2022-12-29T15:13:34;10.20;99.90
10249;DHT22;5169;50.560;9.714;2022-12-29T15:16:00;10.10;99.90
10249;DHT22;5169;50.560;9.714;2022-12-29T15:18:32;10.10;99.90
10249;DHT22;5169;50.560;9.714;2022-12-29T15:21:05;10.10;99.90
10249;DHT22;5169;50.560;9.714;2022-12-29T15:23:33;10.00;99.90
10249;DHT22;5169;50.560;9.714;2022-12-29T15:26:06;10.00;99.90
10249;DHT22;5169;50.560;9.714;2022-12-29T15:28:41;10.00;99.90
10249;DHT22;5169;50.560;9.714;2022-12-29T15:31:24;9.90;99.90
10249;DHT22;5169;50.560;9.714;2022-12-29T15:33:52;9.90;99.90
10249;DHT22;5169;50.560;9.714;2022-12-29T15:38:47;9.90;99.90
10249;DHT22;5169;50.560;9.714;2022-12-29T15:44:27;9.90;99.90
10249;DHT22;5169;50.560;9.714;2022-12-29T15:46:53;9.80;99.90
10249;DHT22;5169;50.560;9.714;2022-12-29T15:49:20;9.80;99.90
10249;DHT22;5169;50.560;9.714;2022-12-29T15:51:47;9.80;99.90
10249;DHT22;5169;50.560;9.714;2022-12-29T15:54:21;9.90;99.90
10249;DHT22;5169;50.560;9.714;2022-12-29T15:56:48;9.90;99.90
10249;DHT22;5169;50.560;9.714;2022-12-29T15:59:35;9.90;99.90
10249;DHT22;5169;50.560;9.714;2022-12-29T16:02:09;9.80;99.90
10249;DHT22;5169;50.560;9.714;2022-12-29T16:04:35;9.80;99.90
10249;DHT22;5169;50.560;9.714;2022-12-29T16:07:04;9.70;99.90
10249;DHT22;5169;50.560;9.714;2022-12-29T16:09:35;9.70;99.90
10249;DHT22;5169;50.560;9.714;2022-12-29T16:12:22;9.70;99.90
10249;DHT22;5169;50.560;9.714;2022-12-29T16:14:56;9.70;99.90
10249;DHT22;5169;50.560;9.714;2022-12-29T16:17:29;9.70;99.90
10249;DHT22;5169;50.560;9.714;2022-12-29T16:20:14;9.60;99.90
10249;DHT22;5169;50.560;9.714;2022-12-29T16:23:09;9.60;99.90
10249;DHT22;5169;50.560;9.714;2022-12-29T16:25:36;9.50;99.90
10249;DHT22;5169;50.560;9.714;2022-12-29T16:28:16;9.50;99.90
10249;DHT22;5169;50.560;9.714;2022-12-29T16:30:42;9.40;99.90
10249;DHT22;5169;50.560;9.714;2022-12-29T16:33:44;9.40;99.90
10249;DHT22;5169;50.560;9.714;2022-12-29T16:36:27;9.40;99.90
10249;DHT22;5169;50.560;9.714;2022-12-29T16:41:44;9.40;99.90
10249;DHT22;5169;50.560;9.714;2022-12-29T16:49:40;9.40;99.90
10249;DHT22;5169;50.560;9.714;2022-12-29T16:52:18;9.50;99.90
10249;DHT22;5169;50.560;9.714;2022-12-29T16:54:54;9.50;99.90
10249;DHT22;5169;50.560;9.714;2022-12-29T16:57:27;9.50;99.90
10249;DHT22;5169;50.560;9.714;2022-12-29T16:59:59;9.40;99.90
10249;DHT22;5169;50.560;9.714;2022-12-29T17:02:31;9.40;99.90
10249;DHT22;5169;50.560;9.714;2022-12-29T17:04:57;9.40;99.90
10249;DHT22;5169;50.560;9.714;2022-12-29T17:07:25;9.30;99.90
10249;DHT22;5169;50.560;9.714;2022-12-29T17:09:51;9.20;99.90
10249;DHT22;5169;50.560;9.714;2022-12-29T17:12:23;9.10;99.90
10249;DHT22;5169;50.560;9.714;2022-12-29T17:15:02;9.00;99.90
10249;DHT22;5169;50.560;9.714;2022-12-29T17:17:36;9.00;99.90
10249;DHT22;5169;50.560;9.714;2022-12-29T17:22:49;9.00;99.90
10249;DHT22;5169;50.560;9.714;2022-12-29T17:25:36;8.90;99.90
10249;DHT22;5169;50.560;9.714;2022-12-29T17:28:12;8.90;99.90
10249;DHT22;5169;50.560;9.714;2022-12-29T17:30:42;8.90;99.90
10249;DHT22;5169;50.560;9.714;2022-12-29T17:33:20;8.80;99.90
10249;DHT22;5169;50.560;9.714;2022-12-29T17:35:46;8.80;99.90
10249;DHT22;5169;50.560;9.714;2022-12-29T17:40:40;8.70;99.90
10249;DHT22;5169;50.560;9.714;2022-12-29T17:43:11;8.70;99.90
10249;DHT22;5169;50.560;9.714;2022-12-29T17:45:38;8.70;99.90
10249;DHT22;5169;50.560;9.714;2022-12-29T17:48:13;8.60;99.90
10249;DHT22;5169;50.560;9.714;2022-12-29T17:50:39;8.60;99.90
10249;DHT22;5169;50.560;9.714;2022-12-29T17:53:09;8.60;99.90
10249;DHT22;5169;50.560;9.714;2022-12-29T17:55:35;8.60;99.90
10249;DHT22;5169;50.560;9.714;2022-12-29T17:58:31;8.70;99.90
10249;DHT22;5169;50.560;9.714;2022-12-29T18:01:01;8.70;99.90
10249;DHT22;5169;50.560;9.714;2022-12-29T18:03:30;8.70;99.90
10249;DHT22;5169;50.560;9.714;2022-12-29T18:06:01;8.60;99.90
10249;DHT22;5169;50.560;9.714;2022-12-29T18:08:31;8.70;99.90
10249;DHT22;5169;50.560;9.714;2022-12-29T18:10:57;8.70;99.90
10249;DHT22;5169;50.560;9.714;2022-12-29T18:13:28;8.80;99.90
10249;DHT22;5169;50.560;9.714;2022-12-29T18:15:55;8.80;99.90
10249;DHT22;5169;50.560;9.714;2022-12-29T18:18:23;8.80;99.90
10249;DHT22;5169;50.560;9.714;2022-12-29T18:20:54;8.80;99.90
10249;DHT22;5169;50.560;9.714;2022-12-29T18:23:23;8.80;99.90
10249;DHT22;5169;50.560;9.714;2022-12-29T18:25:58;8.80;99.90
10249;DHT22;5169;50.560;9.714;2022-12-29T18:28:26;8.70;99.90
10249;DHT22;5169;50.560;9.714;2022-12-29T18:30:56;8.70;99.90
10249;DHT22;5169;50.560;9.714;2022-12-29T18:33:24;8.70;99.90
10249;DHT22;5169;50.560;9.714;2022-12-29T18:36:01;8.70;99.90
10249;DHT22;5169;50.560;9.714;2022-12-29T18:38:28;8.70;99.90
10249;DHT22;5169;50.560;9.714;2022-12-29T18:40:55;8.60;99.90
10249;DHT22;5169;50.560;9.714;2022-12-29T18:43:23;8.60;99.90
10249;DHT22;5169;50.560;9.714;2022-12-29T18:45:54;8.60;99.90
10249;DHT22;5169;50.560;9.714;2022-12-29T18:48:20;8.60;99.90
10249;DHT22;5169;50.560;9.714;2022-12-29T18:50:46;8.50;99.90
10249;DHT22;5169;50.560;9.714;2022-12-29T18:53:21;8.50;99.90
10249;DHT22;5169;50.560;9.714;2022-12-29T18:55:47;8.50;99.90
10249;DHT22;5169;50.560;9.714;2022-12-29T18:58:16;8.50;99.90
10249;DHT22;5169;50.560;9.714;2022-12-29T19:00:45;8.50;99.90
10249;DHT22;5169;50.560;9.714;2022-12-29T19:03:16;8.40;99.90
10249;DHT22;5169;50.560;9.714;2022-12-29T19:05:44;8.40;99.90
10249;DHT22;5169;50.560;9.714;2022-12-29T19:08:13;8.40;99.90
10249;DHT22;5169;50.560;9.714;2022-12-29T19:10:40;8.50;99.90
10249;DHT22;5169;50.560;9.714;2022-12-29T19:13:08;8.50;99.90
10249;DHT22;5169;50.560;9.714;2022-12-29T19:15:36;8.50;99.90
10249;DHT22;5169;50.560;9.714;2022-12-29T19:18:03;8.50;99.90
10249;DHT22;5169;50.560;9.714;2022-12-29T19:20:38;8.50;99.90
10249;DHT22;5169;50.560;9.714;2022-12-29T19:23:12;8.60;99.90
10249;DHT22;5169;50.560;9.714;2022-12-29T19:25:39;8.60;99.90
10249;DHT22;5169;50.560;9.714;2022-12-29T19:28:06;8.60;99.90